Time,TemperatureF,DewpointF,PressureIn,WindDirection,WindDirectionDegrees,WindSpeedMPH,WindSpeedGustMPH,Humidity,HourlyPrecipIn,Conditions,Clouds,dailyrainin,SoftwareType,DateUTC
2013-01-31 00:00:00,50.9,46.9,29.47,West,280,1.0,4.0,86,0.01,,OVC110,1.19,VWS V14.01,2013-01-31 05:00:00,
2013-01-31 00:01:00,50.9,46.6,29.47,WNW,295,2.0,5.0,85,0.01,,OVC110,1.19,VWS V14.01,2013-01-31 05:01:00,
2013-01-31 00:02:00,50.8,46.8,29.46,SW,235,5.0,7.0,86,0.01,,OVC110,0.00,VWS V14.01,2013-01-31 05:02:00,
2013-01-31 00:07:00,50.6,46.6,29.47,SW,219,2.0,6.0,86,0.01,,OVC110,0.00,VWS V14.01,2013-01-31 05:07:00,
2013-01-31 00:12:00,50.5,46.5,29.48,SW,231,2.0,5.0,86,0.01,,OVC110,0.00,VWS V14.01,2013-01-31 05:12:00,
2013-01-31 00:17:00,50.4,46.4,29.48,SW,226,4.0,9.0,86,0.00,,OVC110,0.00,VWS V14.01,2013-01-31 05:17:00,
2013-01-31 00:22:00,50.2,46.2,29.48,SSW,212,7.0,12.0,86,0.00,,BKN110,0.00,VWS V14.01,2013-01-31 05:22:00,
2013-01-31 00:27:00,50.1,46.1,29.48,South,188,1.0,7.0,86,0.00,,BKN110,0.00,VWS V14.01,2013-01-31 05:27:00,
2013-01-31 00:32:00,50.0,46.0,29.47,SW,229,2.0,4.0,86,0.00,,BKN110,0.00,VWS V14.01,2013-01-31 05:32:00,
2013-01-31 00:37:00,49.9,45.6,29.47,WSW,250,5.0,7.0,85,0.00,,BKN110,0.00,VWS V14.01,2013-01-31 05:37:00,
2013-01-31 00:42:00,49.7,45.4,29.49,South,184,2.0,8.0,85,0.00,,SCT110,0.00,VWS V14.01,2013-01-31 05:42:00,
2013-01-31 00:47:00,49.5,45.2,29.49,South,190,2.0,5.0,85,0.00,,SCT110,0.00,VWS V14.01,2013-01-31 05:47:00,
2013-01-31 00:52:00,49.2,45.2,29.50,WSW,239,0.0,2.0,86,0.00,,SCT110,0.00,VWS V14.01,2013-01-31 05:52:00,
2013-01-31 00:57:00,48.9,44.9,29.50,West,278,0.0,2.0,86,0.00,,SCT110,0.00,VWS V14.01,2013-01-31 05:57:00,
2013-01-31 01:02:00,48.9,44.6,29.51,West,269,2.0,5.0,85,0.00,,SCT110,0.00,VWS V14.01,2013-01-31 06:02:00,
2013-01-31 01:07:00,49.1,44.8,29.50,West,262,1.0,4.0,85,0.00,,BKN050,0.00,VWS V14.01,2013-01-31 06:07:00,
2013-01-31 01:12:00,49.1,45.4,29.52,NW,315,0.0,3.0,87,0.01,,BKN050,0.01,VWS V14.01,2013-01-31 06:12:00,
2013-01-31 01:17:00,48.6,45.5,29.53,SW,225,1.0,4.0,89,0.01,,BKN050,0.01,VWS V14.01,2013-01-31 06:17:00,
2013-01-31 01:22:00,48.3,44.9,29.53,SSW,200,1.0,9.0,88,0.01,,-RA,0.01,VWS V14.01,2013-01-31 06:22:00,
2013-01-31 01:27:00,47.9,42.0,29.53,WNW,302,2.0,3.0,80,0.01,,-RA,0.01,VWS V14.01,2013-01-31 06:27:00,
2013-01-31 01:32:00,47.6,41.1,29.54,WSW,245,2.0,7.0,78,0.01,,-RA,0.01,VWS V14.01,2013-01-31 06:32:00,
2013-01-31 01:37:00,47.1,40.6,29.54,WNW,300,4.0,10.0,78,0.01,,-RA,0.01,VWS V14.01,2013-01-31 06:37:00,
2013-01-31 01:42:00,46.9,39.7,29.54,NNW,328,4.0,6.0,76,0.01,,OVC065,0.01,VWS V14.01,2013-01-31 06:42:00,
2013-01-31 01:47:00,46.8,38.6,29.54,WSW,239,2.0,3.0,73,0.01,,OVC065,0.01,VWS V14.01,2013-01-31 06:47:00,
2013-01-31 01:52:00,46.6,37.7,29.55,West,274,3.0,15.0,71,0.01,,OVC065,0.01,VWS V14.01,2013-01-31 06:52:00,
2013-01-31 01:57:00,46.3,37.4,29.55,WNW,294,14.0,16.0,71,0.01,,OVC065,0.01,VWS V14.01,2013-01-31 06:57:00,
2013-01-31 02:02:00,46.0,37.5,29.56,NNW,328,2.0,4.0,72,0.01,,SCT070,0.01,VWS V14.01,2013-01-31 07:02:00,
2013-01-31 02:07:00,45.7,37.5,29.56,SW,236,1.0,3.0,73,0.01,,SCT070,0.01,VWS V14.01,2013-01-31 07:07:00,
2013-01-31 02:12:00,45.6,37.5,29.57,WNW,302,4.0,4.0,73,0.00,,SCT070,0.01,VWS V14.01,2013-01-31 07:12:00,
2013-01-31 02:17:00,45.4,36.2,29.58,NW,308,6.0,8.0,70,0.00,,SCT070,0.01,VWS V14.01,2013-01-31 07:17:00,
2013-01-31 02:22:00,45.2,34.9,29.58,North,360,3.0,10.0,67,0.00,,SCT070,0.01,VWS V14.01,2013-01-31 07:22:00,
2013-01-31 02:27:00,44.9,34.2,29.58,NW,311,5.0,8.0,66,0.00,,SCT070,0.01,VWS V14.01,2013-01-31 07:27:00,
2013-01-31 02:32:00,44.8,33.8,29.58,NW,307,2.0,8.0,65,0.00,,SCT070,0.01,VWS V14.01,2013-01-31 07:32:00,
2013-01-31 02:37:00,44.5,34.2,29.58,WSW,250,4.0,8.0,67,0.00,,SCT070,0.01,VWS V14.01,2013-01-31 07:37:00,
2013-01-31 02:42:00,44.1,34.2,29.58,NNW,329,3.0,4.0,68,0.00,,SCT080,0.01,VWS V14.01,2013-01-31 07:42:00,
2013-01-31 02:47:00,43.8,34.7,29.58,West,276,3.0,4.0,70,0.00,,SCT080,0.01,VWS V14.01,2013-01-31 07:47:00,
2013-01-31 02:52:00,43.5,34.4,29.59,NW,319,4.0,8.0,70,0.00,,SCT080,0.01,VWS V14.01,2013-01-31 07:52:00,
2013-01-31 02:57:00,43.2,34.5,29.60,NNW,327,7.0,7.0,71,0.00,,SCT080,0.01,VWS V14.01,2013-01-31 07:57:00,
2013-01-31 03:02:00,43.3,33.5,29.60,NW,311,5.0,9.0,68,0.00,,CLR,0.01,VWS V14.01,2013-01-31 08:02:00,
2013-01-31 03:07:00,43.5,32.9,29.60,West,280,7.0,8.0,66,0.00,,CLR,0.01,VWS V14.01,2013-01-31 08:07:00,
2013-01-31 03:12:00,43.4,32.4,29.61,NNW,337,3.0,20.0,65,0.00,,CLR,0.01,VWS V14.01,2013-01-31 08:12:00,
2013-01-31 03:17:00,43.5,32.2,29.62,NW,307,14.0,22.0,64,0.00,,CLR,0.01,VWS V14.01,2013-01-31 08:17:00,
2013-01-31 03:22:00,43.2,32.6,29.62,NW,305,6.0,9.0,66,0.00,,SCT060,0.01,VWS V14.01,2013-01-31 08:22:00,
2013-01-31 03:27:00,43.0,31.7,29.63,West,263,5.0,15.0,64,0.00,,SCT060,0.01,VWS V14.01,2013-01-31 08:27:00,
2013-01-31 03:32:00,42.8,30.7,29.62,NW,325,4.0,17.0,62,0.00,,SCT060,0.01,VWS V14.01,2013-01-31 08:32:00,
2013-01-31 03:37:00,42.5,31.2,29.64,NNW,333,2.0,7.0,64,0.00,,SCT060,0.01,VWS V14.01,2013-01-31 08:37:00,
2013-01-31 03:42:00,42.2,30.5,29.64,WNW,295,3.0,8.0,63,0.00,,SCT060,0.01,VWS V14.01,2013-01-31 08:42:00,
2013-01-31 03:47:00,42.1,30.0,29.64,NNW,339,7.0,9.0,62,0.00,,SCT060,0.01,VWS V14.01,2013-01-31 08:47:00,
2013-01-31 03:52:00,42.2,29.3,29.65,WSW,254,12.0,20.0,60,0.00,,SCT060,0.01,VWS V14.01,2013-01-31 08:52:00,
2013-01-31 03:57:00,41.9,30.2,29.65,NW,305,7.0,11.0,63,0.00,,SCT060,0.01,VWS V14.01,2013-01-31 08:57:00,
2013-01-31 04:02:00,41.6,30.3,29.66,NW,313,9.0,12.0,64,0.00,,SCT050,0.01,VWS V14.01,2013-01-31 09:02:00,
2013-01-31 04:07:00,41.3,30.8,29.66,WNW,300,6.0,12.0,66,0.00,,SCT050,0.01,VWS V14.01,2013-01-31 09:07:00,
2013-01-31 04:12:00,41.0,31.3,29.67,WNW,287,7.0,12.0,68,0.00,,SCT050,0.01,VWS V14.01,2013-01-31 09:12:00,
2013-01-31 04:17:00,40.6,31.2,29.67,WNW,293,6.0,14.0,69,0.00,,SCT050,0.01,VWS V14.01,2013-01-31 09:17:00,
2013-01-31 04:22:00,40.3,31.3,29.67,NW,324,7.0,8.0,70,0.00,,BKN055,0.01,VWS V14.01,2013-01-31 09:22:00,
2013-01-31 04:27:00,40.0,31.0,29.67,WNW,302,6.0,19.0,70,0.00,,BKN055,0.01,VWS V14.01,2013-01-31 09:27:00,
2013-01-31 04:32:00,39.6,30.6,29.69,WNW,297,7.0,16.0,70,0.00,,BKN055,0.01,VWS V14.01,2013-01-31 09:32:00,
2013-01-31 04:37:00,39.3,30.4,29.69,West,281,6.0,14.0,70,0.00,,BKN055,0.01,VWS V14.01,2013-01-31 09:37:00,
2013-01-31 04:42:00,39.0,28.6,29.69,WNW,302,6.0,13.0,66,0.00,,SCT055,0.01,VWS V14.01,2013-01-31 09:42:00,
2013-01-31 04:47:00,38.9,27.8,29.70,WNW,302,6.0,14.0,64,0.00,,SCT055,0.01,VWS V14.01,2013-01-31 09:47:00,
2013-01-31 04:52:00,38.7,26.8,29.70,NNW,340,1.0,6.0,62,0.00,,SCT055,0.01,VWS V14.01,2013-01-31 09:52:00,
2013-01-31 04:57:00,38.6,25.5,29.71,NW,313,3.0,16.0,59,0.00,,SCT055,0.01,VWS V14.01,2013-01-31 09:57:00,
2013-01-31 05:02:00,38.4,25.3,29.71,WSW,245,3.0,5.0,59,0.00,,CLR,0.01,VWS V14.01,2013-01-31 10:02:00,
2013-01-31 05:07:00,38.3,24.8,29.71,WNW,298,7.0,15.0,58,0.00,,CLR,0.01,VWS V14.01,2013-01-31 10:07:00,
2013-01-31 05:12:00,38.1,25.1,29.72,NW,314,3.0,9.0,59,0.00,,CLR,0.01,VWS V14.01,2013-01-31 10:12:00,
2013-01-31 05:17:00,37.9,25.3,29.73,NW,311,4.0,8.0,60,0.00,,CLR,0.01,VWS V14.01,2013-01-31 10:17:00,
2013-01-31 05:22:00,37.8,25.6,29.73,WNW,297,2.0,7.0,61,0.00,,SCT050,0.01,VWS V14.01,2013-01-31 10:22:00,
2013-01-31 05:27:00,37.7,25.5,29.74,NW,307,6.0,14.0,61,0.00,,SCT050,0.01,VWS V14.01,2013-01-31 10:27:00,
2013-01-31 05:32:00,37.5,25.3,29.74,North,10,5.0,15.0,61,0.00,,SCT050,0.01,VWS V14.01,2013-01-31 10:32:00,
2013-01-31 05:37:00,37.5,25.3,29.74,WNW,287,2.0,16.0,61,0.00,,SCT050,0.01,VWS V14.01,2013-01-31 10:37:00,
2013-01-31 05:42:00,37.2,25.0,29.74,NW,313,4.0,7.0,61,0.00,,SCT060,0.01,VWS V14.01,2013-01-31 10:42:00,
2013-01-31 05:47:00,37.0,26.0,29.75,WNW,284,3.0,7.0,64,0.00,,SCT060,0.01,VWS V14.01,2013-01-31 10:47:00,
2013-01-31 05:52:00,36.7,24.9,29.75,WNW,295,9.0,15.0,62,0.00,,SCT060,0.01,VWS V14.01,2013-01-31 10:52:00,
2013-01-31 05:57:00,36.5,25.5,29.76,WNW,294,4.0,8.0,64,0.00,,SCT060,0.01,VWS V14.01,2013-01-31 10:57:00,
2013-01-31 06:02:00,36.2,26.0,29.76,WNW,291,1.0,7.0,66,0.00,,SCT065,0.01,VWS V14.01,2013-01-31 11:02:00,
2013-01-31 06:07:00,35.9,26.4,29.77,West,273,0.0,4.0,68,0.00,,SCT065,0.01,VWS V14.01,2013-01-31 11:07:00,
2013-01-31 06:12:00,35.6,26.5,29.77,WNW,294,0.0,3.0,69,0.00,,SCT065,0.01,VWS V14.01,2013-01-31 11:12:00,
2013-01-31 06:17:00,35.3,26.5,29.77,West,265,1.0,4.0,70,0.00,,SCT065,0.01,VWS V14.01,2013-01-31 11:17:00,
2013-01-31 06:22:00,35.0,26.2,29.77,NNW,330,0.0,1.0,70,0.00,,BKN055,0.01,VWS V14.01,2013-01-31 11:22:00,
2013-01-31 06:27:00,34.8,25.7,29.78,NW,324,3.0,5.0,69,0.00,,BKN055,0.01,VWS V14.01,2013-01-31 11:27:00,
2013-01-31 06:32:00,34.8,25.3,29.78,NW,324,2.0,2.0,68,0.00,,BKN055,0.01,VWS V14.01,2013-01-31 11:32:00,
2013-01-31 06:37:00,34.7,25.2,29.79,SSW,212,4.0,7.0,68,0.00,,BKN055,0.01,VWS V14.01,2013-01-31 11:37:00,
2013-01-31 06:42:00,34.8,25.0,29.80,WNW,294,2.0,2.0,67,0.00,,BKN065,0.01,VWS V14.01,2013-01-31 11:42:00,
2013-01-31 06:47:00,34.8,23.9,29.79,SW,222,2.0,5.0,64,0.00,,BKN065,0.01,VWS V14.01,2013-01-31 11:47:00,
2013-01-31 06:52:00,34.8,23.5,29.80,WNW,290,3.0,7.0,63,0.00,,BKN065,0.01,VWS V14.01,2013-01-31 11:52:00,
2013-01-31 06:57:00,34.9,22.0,29.80,NW,326,1.0,11.0,59,0.00,,BKN065,0.01,VWS V14.01,2013-01-31 11:57:00,
2013-01-31 07:02:00,35.1,21.4,29.81,WNW,289,3.0,10.0,57,0.00,,BKN050,0.01,VWS V14.01,2013-01-31 12:02:00,
2013-01-31 07:07:00,35.1,21.8,29.81,NW,307,5.0,5.0,58,0.00,,BKN050,0.01,VWS V14.01,2013-01-31 12:07:00,
2013-01-31 07:12:00,34.9,22.0,29.82,WNW,295,5.0,6.0,59,0.00,,BKN050,0.01,VWS V14.01,2013-01-31 12:12:00,
2013-01-31 07:17:00,34.9,21.6,29.82,NW,304,2.0,12.0,58,0.00,,BKN050,0.01,VWS V14.01,2013-01-31 12:17:00,
2013-01-31 07:22:00,34.9,21.2,29.82,West,274,5.0,11.0,57,0.00,,BKN055,0.01,VWS V14.01,2013-01-31 12:22:00,
2013-01-31 07:27:00,34.9,21.6,29.82,West,276,1.0,5.0,58,0.00,,BKN055,0.01,VWS V14.01,2013-01-31 12:27:00,
2013-01-31 07:32:00,34.9,21.2,29.82,North,353,5.0,21.0,57,0.00,,BKN055,0.01,VWS V14.01,2013-01-31 12:32:00,
2013-01-31 07:37:00,34.9,21.2,29.83,WNW,300,3.0,12.0,57,0.00,,BKN055,0.01,VWS V14.01,2013-01-31 12:37:00,
2013-01-31 07:42:00,35.1,21.4,29.83,West,280,9.0,12.0,57,0.00,,SCT050,0.01,VWS V14.01,2013-01-31 12:42:00,
2013-01-31 07:47:00,35.3,20.8,29.83,WNW,302,9.0,19.0,55,0.00,,SCT050,0.01,VWS V14.01,2013-01-31 12:47:00,
2013-01-31 07:52:00,35.3,21.2,29.84,NW,319,8.0,12.0,56,0.00,,SCT050,0.01,VWS V14.01,2013-01-31 12:52:00,
2013-01-31 07:57:00,35.4,21.3,29.84,NW,311,4.0,9.0,56,0.00,,SCT050,0.01,VWS V14.01,2013-01-31 12:57:00,
2013-01-31 08:02:00,35.5,21.0,29.85,NW,314,5.0,9.0,55,0.00,,CLR,0.01,VWS V14.01,2013-01-31 13:02:00,
2013-01-31 08:07:00,35.5,21.4,29.85,NW,305,18.0,18.0,56,0.00,,CLR,0.01,VWS V14.01,2013-01-31 13:07:00,
2013-01-31 08:12:00,35.6,21.0,29.85,WNW,302,11.0,13.0,55,0.00,,CLR,0.01,VWS V14.01,2013-01-31 13:12:00,
2013-01-31 08:17:00,35.8,22.1,29.85,NW,311,5.0,5.0,57,0.00,,CLR,0.01,VWS V14.01,2013-01-31 13:17:00,
2013-01-31 08:22:00,36.0,21.8,29.85,NW,311,4.0,5.0,56,0.00,,CLR,0.01,VWS V14.01,2013-01-31 13:22:00,
2013-01-31 08:27:00,36.3,22.5,29.86,NW,315,4.0,5.0,57,0.00,,CLR,0.01,VWS V14.01,2013-01-31 13:27:00,
2013-01-31 08:32:00,36.4,21.8,29.85,ENE,61,1.0,13.0,55,0.00,,CLR,0.01,VWS V14.01,2013-01-31 13:32:00,
2013-01-31 08:37:00,36.5,22.3,29.86,NW,307,13.0,13.0,56,0.00,,CLR,0.01,VWS V14.01,2013-01-31 13:37:00,
2013-01-31 08:42:00,36.8,22.2,29.86,SW,219,6.0,13.0,55,0.00,,CLR,0.01,VWS V14.01,2013-01-31 13:42:00,
2013-01-31 08:47:00,37.2,22.5,29.87,SW,229,0.0,9.0,55,0.00,,CLR,0.01,VWS V14.01,2013-01-31 13:47:00,
2013-01-31 08:52:00,37.4,23.1,29.88,WSW,256,3.0,3.0,56,0.00,,CLR,0.01,VWS V14.01,2013-01-31 13:52:00,
2013-01-31 08:57:00,37.6,22.0,29.88,WNW,302,3.0,7.0,53,0.00,,CLR,0.01,VWS V14.01,2013-01-31 13:57:00,
2013-01-31 09:02:00,37.5,21.5,29.88,NW,311,10.0,12.0,52,0.00,,SCT050,0.01,VWS V14.01,2013-01-31 14:02:00,
2013-01-31 09:07:00,37.3,20.9,29.89,NW,305,9.0,19.0,51,0.00,,SCT050,0.01,VWS V14.01,2013-01-31 14:07:00,
2013-01-31 09:12:00,37.3,22.2,29.89,WNW,302,11.0,15.0,54,0.00,,SCT050,0.01,VWS V14.01,2013-01-31 14:12:00,
2013-01-31 09:17:00,37.5,21.9,29.89,WNW,293,10.0,11.0,53,0.00,,SCT050,0.01,VWS V14.01,2013-01-31 14:17:00,
2013-01-31 09:22:00,37.9,22.3,29.89,West,280,12.0,17.0,53,0.00,,SCT050,0.01,VWS V14.01,2013-01-31 14:22:00,
2013-01-31 09:27:00,38.2,22.6,29.90,NW,307,10.0,11.0,53,0.00,,SCT050,0.01,VWS V14.01,2013-01-31 14:27:00,
2013-01-31 09:32:00,38.0,21.5,29.90,NNW,336,10.0,21.0,51,0.00,,SCT050,0.01,VWS V14.01,2013-01-31 14:32:00,
2013-01-31 09:37:00,37.9,21.9,29.90,NW,305,7.0,15.0,52,0.00,,SCT050,0.01,VWS V14.01,2013-01-31 14:37:00,
2013-01-31 09:42:00,37.9,20.9,29.90,West,269,17.0,22.0,50,0.00,,SCT050,0.01,VWS V14.01,2013-01-31 14:42:00,
2013-01-31 09:47:00,38.3,23.1,29.90,NW,312,5.0,17.0,54,0.00,,SCT050,0.01,VWS V14.01,2013-01-31 14:47:00,
2013-01-31 09:52:00,38.7,22.6,29.90,NNW,327,7.0,11.0,52,0.00,,SCT050,0.01,VWS V14.01,2013-01-31 14:52:00,
2013-01-31 09:57:00,38.9,22.3,29.91,WNW,290,2.0,8.0,51,0.00,,SCT050,0.01,VWS V14.01,2013-01-31 14:57:00,
2013-01-31 10:02:00,39.3,23.2,29.91,WNW,288,2.0,3.0,52,0.00,,SCT060,0.01,VWS V14.01,2013-01-31 15:02:00,
2013-01-31 10:07:00,39.4,21.8,29.91,WSW,242,17.0,17.0,49,0.00,,SCT060,0.01,VWS V14.01,2013-01-31 15:07:00,
2013-01-31 10:12:00,39.7,21.6,29.91,NW,311,16.0,16.0,48,0.00,,SCT060,0.01,VWS V14.01,2013-01-31 15:12:00,
2013-01-31 10:17:00,39.5,21.5,29.91,WNW,302,2.0,9.0,48,0.00,,SCT060,0.01,VWS V14.01,2013-01-31 15:17:00,
2013-01-31 10:22:00,40.0,20.9,29.91,NW,315,1.0,12.0,46,0.00,,CLR,0.01,VWS V14.01,2013-01-31 15:22:00,
2013-01-31 10:27:00,40.0,20.9,29.91,West,263,1.0,11.0,46,0.00,,CLR,0.01,VWS V14.01,2013-01-31 15:27:00,
2013-01-31 10:32:00,40.4,21.3,29.92,West,275,5.0,12.0,46,0.00,,CLR,0.01,VWS V14.01,2013-01-31 15:32:00,
2013-01-31 10:37:00,40.3,21.2,29.92,West,271,6.0,9.0,46,0.00,,CLR,0.01,VWS V14.01,2013-01-31 15:37:00,
2013-01-31 10:42:00,40.6,20.4,29.92,ESE,107,4.0,6.0,44,0.00,,SCT060,0.01,VWS V14.01,2013-01-31 15:42:00,
2013-01-31 10:47:00,40.9,21.7,29.92,SW,226,3.0,3.0,46,0.00,,SCT060,0.01,VWS V14.01,2013-01-31 15:47:00,
2013-01-31 10:52:00,41.1,21.4,29.92,WNW,290,4.0,8.0,45,0.00,,SCT060,0.01,VWS V14.01,2013-01-31 15:52:00,
2013-01-31 10:57:00,41.0,21.3,29.92,West,277,14.0,15.0,45,0.00,,SCT060,0.01,VWS V14.01,2013-01-31 15:57:00,
2013-01-31 11:02:00,40.5,22.4,29.92,NW,307,19.0,19.0,48,0.00,,SCT060,0.01,VWS V14.01,2013-01-31 16:02:00,
2013-01-31 11:07:00,40.8,21.6,29.92,WNW,296,5.0,10.0,46,0.00,,SCT060,0.01,VWS V14.01,2013-01-31 16:07:00,
2013-01-31 11:12:00,40.9,21.2,29.92,NW,322,11.0,17.0,45,0.00,,SCT060,0.01,VWS V14.01,2013-01-31 16:12:00,
2013-01-31 11:17:00,41.1,23.4,29.92,WNW,287,6.0,14.0,49,0.00,,SCT060,0.01,VWS V14.01,2013-01-31 16:17:00,
2013-01-31 11:22:00,41.2,22.0,29.92,WNW,298,6.0,8.0,46,0.00,,SCT070,0.01,VWS V14.01,2013-01-31 16:22:00,
2013-01-31 11:27:00,41.5,23.8,29.92,North,11,2.0,7.0,49,0.00,,SCT070,0.01,VWS V14.01,2013-01-31 16:27:00,
2013-01-31 11:32:00,41.5,21.8,29.92,WNW,297,8.0,11.0,45,0.00,,SCT070,0.01,VWS V14.01,2013-01-31 16:32:00,
2013-01-31 11:37:00,41.0,22.3,29.92,NNW,327,12.0,12.0,47,0.00,,SCT070,0.01,VWS V14.01,2013-01-31 16:37:00,
2013-01-31 11:42:00,40.6,21.5,29.92,WNW,300,5.0,12.0,46,0.00,,SCT065,0.01,VWS V14.01,2013-01-31 16:42:00,
2013-01-31 11:47:00,41.0,22.3,29.92,NW,311,13.0,13.0,47,0.00,,SCT065,0.01,VWS V14.01,2013-01-31 16:47:00,
2013-01-31 11:52:00,41.5,21.8,29.92,West,281,6.0,16.0,45,0.00,,SCT065,0.01,VWS V14.01,2013-01-31 16:52:00,
2013-01-31 11:57:00,41.0,20.2,29.93,NW,305,12.0,13.0,43,0.00,,SCT065,0.01,VWS V14.01,2013-01-31 16:57:00,
2013-01-31 12:02:00,41.0,19.7,29.92,NW,314,11.0,11.0,42,0.00,,SCT075,0.01,VWS V14.01,2013-01-31 17:02:00,
2013-01-31 12:07:00,41.7,20.9,29.93,WNW,287,4.0,11.0,43,0.00,,SCT075,0.01,VWS V14.01,2013-01-31 17:07:00,
2013-01-31 12:12:00,42.4,21.0,29.93,NW,307,7.0,9.0,42,0.00,,SCT075,0.01,VWS V14.01,2013-01-31 17:12:00,
2013-01-31 12:17:00,42.4,20.4,29.93,NW,307,12.0,13.0,41,0.00,,SCT075,0.01,VWS V14.01,2013-01-31 17:17:00,
2013-01-31 12:22:00,41.7,19.8,29.93,NW,310,15.0,23.0,41,0.00,,CLR,0.01,VWS V14.01,2013-01-31 17:22:00,
2013-01-31 12:27:00,41.8,20.4,29.93,NW,321,12.0,17.0,42,0.00,,CLR,0.01,VWS V14.01,2013-01-31 17:27:00,
2013-01-31 12:32:00,41.8,21.0,29.92,WSW,240,18.0,20.0,43,0.00,,CLR,0.01,VWS V14.01,2013-01-31 17:32:00,
2013-01-31 12:37:00,42.4,21.5,29.92,South,181,1.0,3.0,43,0.00,,CLR,0.01,VWS V14.01,2013-01-31 17:37:00,
2013-01-31 12:42:00,42.6,20.6,29.92,WNW,293,8.0,12.0,41,0.00,,CLR,0.01,VWS V14.01,2013-01-31 17:42:00,
2013-01-31 12:47:00,42.5,20.5,29.92,WNW,302,13.0,25.0,41,0.00,,CLR,0.01,VWS V14.01,2013-01-31 17:47:00,
2013-01-31 12:52:00,42.4,21.0,29.91,WNW,302,8.0,18.0,42,0.00,,CLR,0.01,VWS V14.01,2013-01-31 17:52:00,
2013-01-31 12:57:00,42.6,20.6,29.92,NW,311,6.0,9.0,41,0.00,,CLR,0.01,VWS V14.01,2013-01-31 17:57:00,
2013-01-31 13:02:00,43.1,21.0,29.92,WNW,282,3.0,5.0,41,0.00,,CLR,0.01,VWS V14.01,2013-01-31 18:02:00,
2013-01-31 13:07:00,42.8,19.6,29.92,West,281,10.0,18.0,39,0.00,,CLR,0.01,VWS V14.01,2013-01-31 18:07:00,
2013-01-31 13:12:00,42.4,19.2,29.92,NW,314,3.0,17.0,39,0.00,,CLR,0.01,VWS V14.01,2013-01-31 18:12:00,
2013-01-31 13:17:00,42.4,19.2,29.92,NW,321,9.0,12.0,39,0.00,,CLR,0.01,VWS V14.01,2013-01-31 18:17:00,
2013-01-31 13:22:00,42.7,20.1,29.92,NNW,327,2.0,9.0,40,0.00,,CLR,0.01,VWS V14.01,2013-01-31 18:22:00,
2013-01-31 13:27:00,42.9,20.8,29.92,SW,228,4.0,15.0,41,0.00,,CLR,0.01,VWS V14.01,2013-01-31 18:27:00,
2013-01-31 13:32:00,42.7,18.9,29.92,WNW,297,9.0,14.0,38,0.00,,CLR,0.01,VWS V14.01,2013-01-31 18:32:00,
2013-01-31 13:37:00,42.4,18.0,29.92,NW,311,15.0,20.0,37,0.00,,CLR,0.01,VWS V14.01,2013-01-31 18:37:00,
2013-01-31 13:42:00,42.8,19.6,29.92,WNW,291,6.0,12.0,39,0.00,,CLR,0.01,VWS V14.01,2013-01-31 18:42:00,
2013-01-31 13:47:00,42.5,19.3,29.93,West,271,11.0,15.0,39,0.00,,CLR,0.01,VWS V14.01,2013-01-31 18:47:00,
2013-01-31 13:52:00,42.4,18.6,29.92,NW,307,2.0,27.0,38,0.00,,CLR,0.01,VWS V14.01,2013-01-31 18:52:00,
2013-01-31 13:57:00,42.5,19.3,29.93,WNW,300,17.0,18.0,39,0.00,,CLR,0.01,VWS V14.01,2013-01-31 18:57:00,
2013-01-31 14:02:00,42.4,18.6,29.93,WNW,295,12.0,25.0,38,0.00,,CLR,0.01,VWS V14.01,2013-01-31 19:02:00,
2013-01-31 14:07:00,42.8,18.4,29.93,NW,321,4.0,21.0,37,0.00,,CLR,0.01,VWS V14.01,2013-01-31 19:07:00,
2013-01-31 14:12:00,43.1,19.8,29.93,NW,311,17.0,18.0,39,0.00,,CLR,0.01,VWS V14.01,2013-01-31 19:12:00,
2013-01-31 14:17:00,42.7,18.9,29.93,ESE,104,5.0,25.0,38,0.00,,CLR,0.01,VWS V14.01,2013-01-31 19:17:00,
2013-01-31 14:22:00,42.3,19.7,29.93,WNW,294,10.0,12.0,40,0.00,,CLR,0.01,VWS V14.01,2013-01-31 19:22:00,
2013-01-31 14:27:00,42.5,20.5,29.94,WNW,295,9.0,14.0,41,0.00,,CLR,0.01,VWS V14.01,2013-01-31 19:27:00,
2013-01-31 14:32:00,42.6,18.8,29.94,WSW,248,16.0,25.0,38,0.00,,CLR,0.01,VWS V14.01,2013-01-31 19:32:00,
2013-01-31 14:37:00,42.2,18.4,29.94,WNW,302,7.0,29.0,38,0.00,,CLR,0.01,VWS V14.01,2013-01-31 19:37:00,
2013-01-31 14:42:00,41.8,19.3,29.95,NNW,333,11.0,20.0,40,0.00,,CLR,0.01,VWS V14.01,2013-01-31 19:42:00,
2013-01-31 14:47:00,42.0,20.0,29.95,NNW,330,9.0,14.0,41,0.00,,CLR,0.01,VWS V14.01,2013-01-31 19:47:00,
2013-01-31 14:52:00,42.0,18.9,29.96,WNW,289,8.0,23.0,39,0.00,,CLR,0.01,VWS V14.01,2013-01-31 19:52:00,
2013-01-31 14:57:00,41.6,18.5,29.96,WNW,287,26.0,26.0,39,0.00,,CLR,0.01,VWS V14.01,2013-01-31 19:57:00,
2013-01-31 15:02:00,41.7,18.6,29.96,NNW,330,20.0,22.0,39,0.00,,SCT075,0.01,VWS V14.01,2013-01-31 20:02:00,
2013-01-31 15:07:00,41.6,18.5,29.96,NW,312,15.0,21.0,39,0.00,,SCT075,0.01,VWS V14.01,2013-01-31 20:07:00,
2013-01-31 15:12:00,41.5,17.8,29.96,WNW,291,10.0,30.0,38,0.00,,SCT075,0.01,VWS V14.01,2013-01-31 20:12:00,
2013-01-31 15:17:00,41.8,18.1,29.97,SW,221,6.0,9.0,38,0.00,,SCT075,0.01,VWS V14.01,2013-01-31 20:17:00,
2013-01-31 15:22:00,41.7,18.6,29.97,WNW,287,12.0,23.0,39,0.00,,BKN075,0.01,VWS V14.01,2013-01-31 20:22:00,
2013-01-31 15:27:00,41.5,17.2,29.97,WNW,293,15.0,24.0,37,0.00,,BKN075,0.01,VWS V14.01,2013-01-31 20:27:00,
2013-01-31 15:32:00,41.4,17.7,29.96,NNW,346,8.0,24.0,38,0.00,,BKN075,0.01,VWS V14.01,2013-01-31 20:32:00,
2013-01-31 15:37:00,41.6,17.9,29.97,NW,307,5.0,20.0,38,0.00,,BKN075,0.01,VWS V14.01,2013-01-31 20:37:00,
2013-01-31 15:42:00,41.9,17.5,29.97,NW,311,5.0,19.0,37,0.00,,SCT075,0.01,VWS V14.01,2013-01-31 20:42:00,
2013-01-31 15:47:00,42.1,17.7,29.98,NW,315,12.0,24.0,37,0.00,,SCT075,0.01,VWS V14.01,2013-01-31 20:47:00,
2013-01-31 15:52:00,42.0,18.9,29.98,ENE,61,9.0,16.0,39,0.00,,SCT075,0.01,VWS V14.01,2013-01-31 20:52:00,
2013-01-31 15:57:00,42.1,17.7,29.98,ENE,68,3.0,16.0,37,0.00,,SCT075,0.01,VWS V14.01,2013-01-31 20:57:00,
2013-01-31 16:02:00,42.1,19.0,29.99,NNW,335,10.0,14.0,39,0.00,,SCT075,0.01,VWS V14.01,2013-01-31 21:02:00,
2013-01-31 16:07:00,42.0,19.5,29.99,WSW,258,1.0,7.0,40,0.00,,SCT075,0.01,VWS V14.01,2013-01-31 21:07:00,
2013-01-31 16:12:00,42.5,19.3,29.99,WNW,284,3.0,3.0,39,0.00,,SCT075,0.01,VWS V14.01,2013-01-31 21:12:00,
2013-01-31 16:17:00,42.5,18.7,29.99,NW,318,11.0,16.0,38,0.00,,SCT075,0.01,VWS V14.01,2013-01-31 21:17:00,
2013-01-31 16:22:00,42.0,18.9,29.99,NW,324,8.0,9.0,39,0.00,,SCT065,0.01,VWS V14.01,2013-01-31 21:22:00,
2013-01-31 16:27:00,41.7,18.6,29.99,WNW,300,6.0,6.0,39,0.00,,SCT065,0.01,VWS V14.01,2013-01-31 21:27:00,
2013-01-31 16:32:00,41.6,19.1,29.99,NNW,328,2.0,5.0,40,0.00,,SCT065,0.01,VWS V14.01,2013-01-31 21:32:00,
2013-01-31 16:37:00,41.5,19.0,29.98,NW,307,6.0,14.0,40,0.00,,SCT065,0.01,VWS V14.01,2013-01-31 21:37:00,
2013-01-31 16:42:00,41.6,19.1,29.98,NW,308,5.0,7.0,40,0.00,,CLR,0.01,VWS V14.01,2013-01-31 21:42:00,
2013-01-31 16:47:00,41.9,19.4,29.99,NW,314,0.0,6.0,40,0.00,,CLR,0.01,VWS V14.01,2013-01-31 21:47:00,
2013-01-31 16:52:00,42.1,19.0,29.98,South,191,0.0,1.0,39,0.00,,CLR,0.01,VWS V14.01,2013-01-31 21:52:00,
2013-01-31 16:57:00,42.4,20.4,29.98,SSE,153,0.0,3.0,41,0.00,,CLR,0.01,VWS V14.01,2013-01-31 21:57:00,
2013-01-31 17:02:00,42.2,19.0,29.99,West,278,4.0,4.0,39,0.00,,CLR,0.01,VWS V14.01,2013-01-31 22:02:00,
2013-01-31 17:07:00,41.7,19.2,29.99,ESE,104,2.0,5.0,40,0.00,,CLR,0.01,VWS V14.01,2013-01-31 22:07:00,
2013-01-31 17:12:00,41.4,18.9,29.99,West,272,3.0,11.0,40,0.00,,CLR,0.01,VWS V14.01,2013-01-31 22:12:00,
2013-01-31 17:17:00,41.0,19.7,29.98,West,274,2.0,6.0,42,0.00,,CLR,0.01,VWS V14.01,2013-01-31 22:17:00,
2013-01-31 17:22:00,40.7,19.4,29.99,NNW,340,2.0,5.0,42,0.00,,CLR,0.01,VWS V14.01,2013-01-31 22:22:00,
2013-01-31 17:27:00,40.4,19.1,29.99,West,276,1.0,6.0,42,0.00,,CLR,0.01,VWS V14.01,2013-01-31 22:27:00,
2013-01-31 17:32:00,40.3,19.6,29.98,WNW,288,1.0,1.0,43,0.00,,CLR,0.01,VWS V14.01,2013-01-31 22:32:00,
2013-01-31 17:37:00,40.1,18.9,29.99,West,280,1.0,8.0,42,0.00,,CLR,0.01,VWS V14.01,2013-01-31 22:37:00,
2013-01-31 17:42:00,40.1,19.4,29.99,WNW,293,2.0,3.0,43,0.00,,CLR,0.01,VWS V14.01,2013-01-31 22:42:00,
2013-01-31 17:47:00,40.1,19.4,29.99,NW,312,4.0,8.0,43,0.00,,CLR,0.01,VWS V14.01,2013-01-31 22:47:00,
2013-01-31 17:52:00,40.1,18.9,29.99,NW,316,7.0,9.0,42,0.00,,CLR,0.01,VWS V14.01,2013-01-31 22:52:00,
2013-01-31 17:57:00,40.0,19.3,30.00,WNW,300,4.0,9.0,43,0.00,,CLR,0.01,VWS V14.01,2013-01-31 22:57:00,
2013-01-31 18:02:00,40.1,19.4,30.00,WNW,302,8.0,14.0,43,0.00,,CLR,0.01,VWS V14.01,2013-01-31 23:02:00,
2013-01-31 18:07:00,40.0,19.3,29.99,NW,313,2.0,7.0,43,0.00,,CLR,0.01,VWS V14.01,2013-01-31 23:07:00,
2013-01-31 18:12:00,39.9,19.2,29.99,WSW,239,6.0,8.0,43,0.00,,CLR,0.01,VWS V14.01,2013-01-31 23:12:00,
2013-01-31 18:17:00,39.7,19.6,29.99,NW,305,3.0,7.0,44,0.00,,CLR,0.01,VWS V14.01,2013-01-31 23:17:00,
2013-01-31 18:22:00,39.7,20.1,29.99,NW,318,4.0,4.0,45,0.00,,CLR,0.01,VWS V14.01,2013-01-31 23:22:00,
2013-01-31 18:27:00,39.8,19.1,30.00,WNW,298,5.0,11.0,43,0.00,,CLR,0.01,VWS V14.01,2013-01-31 23:27:00,
2013-01-31 18:32:00,39.6,19.5,30.00,NNW,336,3.0,3.0,44,0.00,,CLR,0.01,VWS V14.01,2013-01-31 23:32:00,
2013-01-31 18:37:00,39.7,19.0,29.99,NW,314,2.0,10.0,43,0.00,,CLR,0.01,VWS V14.01,2013-01-31 23:37:00,
2013-01-31 18:42:00,39.7,20.1,30.00,NW,320,1.0,5.0,45,0.00,,CLR,0.01,VWS V14.01,2013-01-31 23:42:00,
2013-01-31 18:47:00,39.6,19.0,30.01,WNW,287,2.0,8.0,43,0.00,,CLR,0.01,VWS V14.01,2013-01-31 23:47:00,
2013-01-31 18:52:00,39.4,19.8,30.01,North,7,2.0,3.0,45,0.00,,CLR,0.01,VWS V14.01,2013-01-31 23:52:00,
2013-01-31 18:57:00,39.1,19.6,30.01,WSW,245,0.0,4.0,45,0.00,,CLR,0.01,VWS V14.01,2013-01-31 23:57:00,
2013-01-31 19:02:00,39.0,20.0,30.01,NNW,344,3.0,6.0,46,0.00,,CLR,0.01,VWS V14.01,2013-02-01 00:02:00,
2013-01-31 19:07:00,39.1,20.1,30.01,NW,308,3.0,4.0,46,0.00,,CLR,0.01,VWS V14.01,2013-02-01 00:07:00,
2013-01-31 19:12:00,39.0,20.0,30.02,WNW,302,2.0,2.0,46,0.00,,CLR,0.01,VWS V14.01,2013-02-01 00:12:00,
2013-01-31 19:17:00,38.8,20.3,30.02,WNW,290,0.0,2.0,47,0.00,,CLR,0.01,VWS V14.01,2013-02-01 00:17:00,
2013-01-31 19:22:00,38.9,20.4,30.02,SE,141,0.0,2.0,47,0.00,,CLR,0.01,VWS V14.01,2013-02-01 00:22:00,
2013-01-31 19:27:00,38.7,19.7,30.02,WSW,239,3.0,7.0,46,0.00,,CLR,0.01,VWS V14.01,2013-02-01 00:27:00,
2013-01-31 19:32:00,38.7,20.2,30.02,SSE,166,2.0,3.0,47,0.00,,CLR,0.01,VWS V14.01,2013-02-01 00:32:00,
2013-01-31 19:37:00,38.6,20.6,30.02,WSW,250,0.0,1.0,48,0.00,,CLR,0.01,VWS V14.01,2013-02-01 00:37:00,
2013-01-31 19:42:00,38.2,20.2,30.03,SSW,198,0.0,0.0,48,0.00,,CLR,0.01,VWS V14.01,2013-02-01 00:42:00,
2013-01-31 19:47:00,37.9,20.5,30.02,SSW,210,1.0,2.0,49,0.00,,CLR,0.01,VWS V14.01,2013-02-01 00:47:00,
2013-01-31 19:52:00,37.8,20.4,30.02,WNW,284,0.0,0.0,49,0.00,,CLR,0.01,VWS V14.01,2013-02-01 00:52:00,
2013-01-31 19:57:00,37.5,20.1,30.02,SW,229,1.0,2.0,49,0.00,,CLR,0.01,VWS V14.01,2013-02-01 00:57:00,
2013-01-31 20:02:00,37.3,19.9,30.01,SW,219,0.0,1.0,49,0.00,,CLR,0.01,VWS V14.01,2013-02-01 01:02:00,
2013-01-31 20:07:00,37.1,20.2,30.01,SSE,163,0.0,1.0,50,0.00,,CLR,0.01,VWS V14.01,2013-02-01 01:07:00,
2013-01-31 20:12:00,36.7,20.8,30.00,SW,221,0.0,0.0,52,0.00,,CLR,0.01,VWS V14.01,2013-02-01 01:12:00,
2013-01-31 20:17:00,36.4,20.0,30.01,SW,226,1.0,1.0,51,0.00,,CLR,0.01,VWS V14.01,2013-02-01 01:17:00,
2013-01-31 20:22:00,36.1,20.2,30.01,SW,226,0.0,0.0,52,0.00,,CLR,0.01,VWS V14.01,2013-02-01 01:22:00,
2013-01-31 20:27:00,35.6,20.2,30.01,SW,226,0.0,0.0,53,0.00,,CLR,0.01,VWS V14.01,2013-02-01 01:27:00,
2013-01-31 20:32:00,34.9,21.6,30.01,SW,226,0.0,0.0,58,0.00,,CLR,0.01,VWS V14.01,2013-02-01 01:32:00,
2013-01-31 20:37:00,34.4,21.6,30.01,SW,226,0.0,0.0,59,0.00,,CLR,0.01,VWS V14.01,2013-02-01 01:37:00,
2013-01-31 20:42:00,33.8,21.0,30.02,SW,226,0.0,0.0,59,0.00,,CLR,0.01,VWS V14.01,2013-02-01 01:42:00,
2013-01-31 20:47:00,33.3,21.3,30.01,South,172,1.0,1.0,61,0.00,,CLR,0.01,VWS V14.01,2013-02-01 01:47:00,
2013-01-31 20:52:00,32.8,20.5,30.02,SW,236,1.0,1.0,60,0.00,,CLR,0.01,VWS V14.01,2013-02-01 01:52:00,
2013-01-31 20:57:00,32.7,21.5,30.01,SE,141,1.0,1.0,63,0.00,,CLR,0.01,VWS V14.01,2013-02-01 01:57:00,
2013-01-31 21:02:00,32.1,21.7,30.02,SSE,150,0.0,0.0,65,0.00,,CLR,0.01,VWS V14.01,2013-02-01 02:02:00,
2013-01-31 21:07:00,31.9,22.2,30.02,SW,231,0.0,0.0,67,0.00,,CLR,0.01,VWS V14.01,2013-02-01 02:07:00,
2013-01-31 21:12:00,31.5,21.8,30.03,SSE,166,0.0,0.0,67,0.00,,CLR,0.01,VWS V14.01,2013-02-01 02:12:00,
2013-01-31 21:17:00,30.9,22.6,30.02,SSE,155,1.0,2.0,71,0.00,,CLR,0.01,VWS V14.01,2013-02-01 02:17:00,
2013-01-31 21:22:00,30.3,22.4,30.02,SSE,157,0.0,1.0,72,0.00,,CLR,0.01,VWS V14.01,2013-02-01 02:22:00,
2013-01-31 21:27:00,29.8,22.5,30.02,SSE,156,0.0,0.0,74,0.00,,CLR,0.01,VWS V14.01,2013-02-01 02:27:00,
2013-01-31 21:32:00,29.4,23.1,30.02,SSE,156,0.0,0.0,77,0.00,,CLR,0.01,VWS V14.01,2013-02-01 02:32:00,
2013-01-31 21:37:00,29.2,22.6,30.03,SSE,156,0.0,0.0,76,0.00,,CLR,0.01,VWS V14.01,2013-02-01 02:37:00,
2013-01-31 21:42:00,28.9,22.6,30.03,SSE,153,0.0,0.0,77,0.00,,CLR,0.01,VWS V14.01,2013-02-01 02:42:00,
2013-01-31 21:47:00,28.8,22.8,30.02,SSE,153,0.0,0.0,78,0.00,,CLR,0.01,VWS V14.01,2013-02-01 02:47:00,
2013-01-31 21:52:00,28.6,22.6,30.02,SSE,153,0.0,0.0,78,0.00,,CLR,0.01,VWS V14.01,2013-02-01 02:52:00,
2013-01-31 21:57:00,28.4,23.0,30.02,SSE,153,0.0,0.0,80,0.00,,CLR,0.01,VWS V14.01,2013-02-01 02:57:00,
2013-01-31 22:02:00,28.3,22.9,30.03,South,174,0.0,0.0,80,0.00,,CLR,0.01,VWS V14.01,2013-02-01 03:02:00,
2013-01-31 22:07:00,28.1,23.0,30.02,South,175,0.0,0.0,81,0.00,,CLR,0.01,VWS V14.01,2013-02-01 03:07:00,
2013-01-31 22:12:00,28.0,22.9,30.02,SSE,160,1.0,1.0,81,0.00,,CLR,0.01,VWS V14.01,2013-02-01 03:12:00,
2013-01-31 22:17:00,28.0,23.2,30.02,SSE,151,0.0,1.0,82,0.00,,CLR,0.01,VWS V14.01,2013-02-01 03:17:00,
2013-01-31 22:22:00,28.2,23.4,30.02,SSE,153,1.0,1.0,82,0.00,,CLR,0.01,VWS V14.01,2013-02-01 03:22:00,
2013-01-31 22:27:00,28.2,23.7,30.02,SSE,156,1.0,1.0,83,0.00,,CLR,0.01,VWS V14.01,2013-02-01 03:27:00,
2013-01-31 22:32:00,28.2,23.7,30.02,SSE,156,0.0,0.0,83,0.00,,CLR,0.01,VWS V14.01,2013-02-01 03:32:00,
2013-01-31 22:37:00,28.5,23.7,30.02,West,269,0.0,0.0,82,0.00,,CLR,0.01,VWS V14.01,2013-02-01 03:37:00,
2013-01-31 22:42:00,28.8,24.0,30.02,SW,235,0.0,0.0,82,0.00,,CLR,0.01,VWS V14.01,2013-02-01 03:42:00,
2013-01-31 22:47:00,29.0,23.9,30.02,SW,235,0.0,1.0,81,0.00,,CLR,0.01,VWS V14.01,2013-02-01 03:47:00,
2013-01-31 22:52:00,28.7,23.9,30.01,SW,235,0.0,0.0,82,0.00,,CLR,0.01,VWS V14.01,2013-02-01 03:52:00,
2013-01-31 22:57:00,28.5,23.4,30.01,SE,141,0.0,1.0,81,0.00,,CLR,0.01,VWS V14.01,2013-02-01 03:57:00,
2013-01-31 23:02:00,28.4,23.6,30.01,SE,141,0.0,0.0,82,0.00,,CLR,0.01,VWS V14.01,2013-02-01 04:02:00,
2013-01-31 23:07:00,28.3,23.2,30.01,SE,141,0.0,1.0,81,0.00,,CLR,0.01,VWS V14.01,2013-02-01 04:07:00,
2013-01-31 23:12:00,28.3,23.8,30.01,SE,141,0.0,0.0,83,0.00,,CLR,0.01,VWS V14.01,2013-02-01 04:12:00,
2013-01-31 23:17:00,28.2,23.7,30.01,NE,36,1.0,2.0,83,0.00,,CLR,0.01,VWS V14.01,2013-02-01 04:17:00,
2013-01-31 23:22:00,28.1,23.3,30.01,SW,232,0.0,1.0,82,0.00,,CLR,0.01,VWS V14.01,2013-02-01 04:22:00,
2013-01-31 23:27:00,28.0,23.2,30.01,SSE,150,0.0,1.0,82,0.00,,CLR,0.01,VWS V14.01,2013-02-01 04:27:00,
2013-01-31 23:32:00,27.8,23.0,30.01,SSE,151,0.0,1.0,82,0.00,,CLR,0.01,VWS V14.01,2013-02-01 04:32:00,
2013-01-31 23:37:00,27.5,22.5,30.01,SSE,150,0.0,0.0,81,0.00,,CLR,0.01,VWS V14.01,2013-02-01 04:37:00,
2013-01-31 23:42:00,27.4,22.6,30.01,SSE,151,0.0,0.0,82,0.00,,CLR,0.01,VWS V14.01,2013-02-01 04:42:00,
2013-01-31 23:47:00,27.4,23.2,30.01,SW,234,0.0,1.0,84,0.00,,CLR,0.01,VWS V14.01,2013-02-01 04:47:00,
2013-01-31 23:52:00,27.5,22.7,30.01,WNW,300,2.0,2.0,82,0.00,,CLR,0.01,VWS V14.01,2013-02-01 04:52:00,
2013-01-31 23:57:00,27.6,23.1,30.01,SW,232,0.0,0.0,83,0.00,,CLR,0.01,VWS V14.01,2013-02-01 04:57:00,